sensor_id;sensor_type;location;lat;lon;timestamp;temperature;humidity
17827;DHT22;9038;48.208;16.308;2023-05-19T00:01:26;12.60;99.90
17827;DHT22;9038;48.208;16.308;2023-05-19T00:03:29;12.60;99.90
17827;DHT22;9038;48.208;16.308;2023-05-19T00:05:34;12.60;99.90
17827;DHT22;9038;48.208;16.308;2023-05-19T00:07:45;12.60;99.90
17827;DHT22;9038;48.208;16.308;2023-05-19T00:09:48;12.60;99.90
17827;DHT22;9038;48.208;16.308;2023-05-19T00:11:50;12.60;99.90
17827;DHT22;9038;48.208;16.308;2023-05-19T00:13:53;12.60;99.90
17827;DHT22;9038;48.208;16.308;2023-05-19T00:15:57;12.60;99.90
17827;DHT22;9038;48.208;16.308;2023-05-19T00:17:59;12.50;99.90
17827;DHT22;9038;48.208;16.308;2023-05-19T00:20:02;12.60;99.90
17827;DHT22;9038;48.208;16.308;2023-05-19T00:22:06;12.60;99.90
17827;DHT22;9038;48.208;16.308;2023-05-19T00:24:08;12.50;99.90
17827;DHT22;9038;48.208;16.308;2023-05-19T00:26:10;12.60;99.90
17827;DHT22;9038;48.208;16.308;2023-05-19T00:28:12;12.50;99.90
17827;DHT22;9038;48.208;16.308;2023-05-19T00:30:14;12.50;99.90
17827;DHT22;9038;48.208;16.308;2023-05-19T00:32:24;12.50;99.90
17827;DHT22;9038;48.208;16.308;2023-05-19T00:34:26;12.50;99.90
17827;DHT22;9038;48.208;16.308;2023-05-19T00:36:28;12.50;99.90
17827;DHT22;9038;48.208;16.308;2023-05-19T00:38:31;12.50;99.90
17827;DHT22;9038;48.208;16.308;2023-05-19T00:40:34;12.50;99.90
17827;DHT22;9038;48.208;16.308;2023-05-19T00:42:37;12.50;99.90
17827;DHT22;9038;48.208;16.308;2023-05-19T00:44:40;12.50;99.90
17827;DHT22;9038;48.208;16.308;2023-05-19T00:46:42;12.40;99.90
17827;DHT22;9038;48.208;16.308;2023-05-19T00:48:45;12.40;99.90
17827;DHT22;9038;48.208;16.308;2023-05-19T00:50:47;12.40;99.90
17827;DHT22;9038;48.208;16.308;2023-05-19T00:52:49;12.40;99.90
17827;DHT22;9038;48.208;16.308;2023-05-19T00:54:52;12.40;99.90
17827;DHT22;9038;48.208;16.308;2023-05-19T00:56:54;12.40;99.90
17827;DHT22;9038;48.208;16.308;2023-05-19T00:58:58;12.30;99.90
17827;DHT22;9038;48.208;16.308;2023-05-19T01:01:00;12.30;99.90
17827;DHT22;9038;48.208;16.308;2023-05-19T01:03:04;12.30;99.90
17827;DHT22;9038;48.208;16.308;2023-05-19T01:05:12;12.20;99.90
17827;DHT22;9038;48.208;16.308;2023-05-19T01:07:14;12.20;99.90
17827;DHT22;9038;48.208;16.308;2023-05-19T01:09:16;12.20;99.90
17827;DHT22;9038;48.208;16.308;2023-05-19T01:11:18;12.10;99.90
17827;DHT22;9038;48.208;16.308;2023-05-19T01:13:21;12.10;99.90
17827;DHT22;9038;48.208;16.308;2023-05-19T01:15:24;12.10;99.90
17827;DHT22;9038;48.208;16.308;2023-05-19T01:17:32;12.10;99.90
17827;DHT22;9038;48.208;16.308;2023-05-19T01:19:49;12.00;99.90
17827;DHT22;9038;48.208;16.308;2023-05-19T01:22:26;12.00;99.90
17827;DHT22;9038;48.208;16.308;2023-05-19T01:24:55;12.00;99.90
17827;DHT22;9038;48.208;16.308;2023-05-19T01:27:35;12.00;99.90
17827;DHT22;9038;48.208;16.308;2023-05-19T01:29:41;11.90;99.90
17827;DHT22;9038;48.208;16.308;2023-05-19T01:31:54;11.90;99.90
17827;DHT22;9038;48.208;16.308;2023-05-19T01:34:00;12.00;99.90
17827;DHT22;9038;48.208;16.308;2023-05-19T01:36:07;11.90;99.90
17827;DHT22;9038;48.208;16.308;2023-05-19T01:38:10;11.90;99.90
17827;DHT22;9038;48.208;16.308;2023-05-19T01:40:12;11.90;99.90
17827;DHT22;9038;48.208;16.308;2023-05-19T01:42:14;11.90;99.90
17827;DHT22;9038;48.208;16.308;2023-05-19T01:44:17;11.90;99.90
17827;DHT22;9038;48.208;16.308;2023-05-19T01:46:22;11.90;99.90
17827;DHT22;9038;48.208;16.308;2023-05-19T01:48:26;11.90;99.90
17827;DHT22;9038;48.208;16.308;2023-05-19T01:50:30;11.90;99.90
17827;DHT22;9038;48.208;16.308;2023-05-19T01:52:32;11.90;99.90
17827;DHT22;9038;48.208;16.308;2023-05-19T01:54:34;11.90;99.90
17827;DHT22;9038;48.208;16.308;2023-05-19T01:56:40;11.90;99.90
17827;DHT22;9038;48.208;16.308;2023-05-19T01:58:46;11.90;99.90
17827;DHT22;9038;48.208;16.308;2023-05-19T02:00:52;11.80;99.90
17827;DHT22;9038;48.208;16.308;2023-05-19T02:03:01;11.90;99.90
17827;DHT22;9038;48.208;16.308;2023-05-19T02:05:12;11.80;99.90
17827;DHT22;9038;48.208;16.308;2023-05-19T02:07:19;11.80;99.90
17827;DHT22;9038;48.208;16.308;2023-05-19T02:09:29;11.80;99.90
17827;DHT22;9038;48.208;16.308;2023-05-19T02:11:36;11.80;99.90
17827;DHT22;9038;48.208;16.308;2023-05-19T02:13:42;11.80;99.90
17827;DHT22;9038;48.208;16.308;2023-05-19T02:15:45;11.70;99.90
17827;DHT22;9038;48.208;16.308;2023-05-19T02:17:47;11.70;99.90
17827;DHT22;9038;48.208;16.308;2023-05-19T02:19:53;11.70;99.90
17827;DHT22;9038;48.208;16.308;2023-05-19T02:21:57;11.60;99.90
17827;DHT22;9038;48.208;16.308;2023-05-19T02:23:58;11.60;99.90
17827;DHT22;9038;48.208;16.308;2023-05-19T02:26:00;11.70;99.90
17827;DHT22;9038;48.208;16.308;2023-05-19T02:28:02;11.60;99.90
17827;DHT22;9038;48.208;16.308;2023-05-19T02:30:07;11.60;99.90
17827;DHT22;9038;48.208;16.308;2023-05-19T02:32:10;11.60;99.90
17827;DHT22;9038;48.208;16.308;2023-05-19T02:34:12;11.60;99.90
17827;DHT22;9038;48.208;16.308;2023-05-19T02:36:13;11.60;99.90
17827;DHT22;9038;48.208;16.308;2023-05-19T02:38:17;11.70;99.90
17827;DHT22;9038;48.208;16.308;2023-05-19T02:40:19;11.70;99.90
17827;DHT22;9038;48.208;16.308;2023-05-19T02:42:21;11.70;99.90
17827;DHT22;9038;48.208;16.308;2023-05-19T02:44:23;11.70;99.90
17827;DHT22;9038;48.208;16.308;2023-05-19T02:46:25;11.70;99.90
17827;DHT22;9038;48.208;16.308;2023-05-19T02:48:27;11.60;99.90
17827;DHT22;9038;48.208;16.308;2023-05-19T02:50:29;11.60;99.90
17827;DHT22;9038;48.208;16.308;2023-05-19T02:52:31;11.60;99.90
17827;DHT22;9038;48.208;16.308;2023-05-19T02:54:34;11.60;99.90
17827;DHT22;9038;48.208;16.308;2023-05-19T02:56:36;11.60;99.90
17827;DHT22;9038;48.208;16.308;2023-05-19T02:58:38;11.50;99.90
17827;DHT22;9038;48.208;16.308;2023-05-19T03:00:42;11.60;99.90
17827;DHT22;9038;48.208;16.308;2023-05-19T03:02:44;11.50;99.90
17827;DHT22;9038;48.208;16.308;2023-05-19T03:04:46;11.50;99.90
17827;DHT22;9038;48.208;16.308;2023-05-19T03:06:48;11.50;99.90
17827;DHT22;9038;48.208;16.308;2023-05-19T03:08:50;11.50;99.90
17827;DHT22;9038;48.208;16.308;2023-05-19T03:10:53;11.50;99.90
17827;DHT22;9038;48.208;16.308;2023-05-19T03:12:55;11.50;99.90
17827;DHT22;9038;48.208;16.308;2023-05-19T03:14:57;11.50;99.90
17827;DHT22;9038;48.208;16.308;2023-05-19T03:16:59;11.50;99.90
17827;DHT22;9038;48.208;16.308;2023-05-19T03:19:01;11.50;99.90
17827;DHT22;9038;48.208;16.308;2023-05-19T03:21:03;11.50;99.90
17827;DHT22;9038;48.208;16.308;2023-05-19T03:23:05;11.50;99.90
17827;DHT22;9038;48.208;16.308;2023-05-19T03:25:08;11.60;99.90
17827;DHT22;9038;48.208;16.308;2023-05-19T03:27:12;11.60;99.90
17827;DHT22;9038;48.208;16.308;2023-05-19T03:29:14;11.60;99.90
17827;DHT22;9038;48.208;16.308;2023-05-19T03:31:16;11.60;99.90
17827;DHT22;9038;48.208;16.308;2023-05-19T03:33:18;11.60;99.90
17827;DHT22;9038;48.208;16.308;2023-05-19T03:35:20;11.60;99.90
17827;DHT22;9038;48.208;16.308;2023-05-19T03:37:22;11.60;99.90
17827;DHT22;9038;48.208;16.308;2023-05-19T03:39:24;11.60;99.90
17827;DHT22;9038;48.208;16.308;2023-05-19T03:41:26;11.60;99.90
17827;DHT22;9038;48.208;16.308;2023-05-19T03:43:29;11.70;99.90
17827;DHT22;9038;48.208;16.308;2023-05-19T03:45:31;11.70;99.90
17827;DHT22;9038;48.208;16.308;2023-05-19T03:47:33;11.70;99.90
17827;DHT22;9038;48.208;16.308;2023-05-19T03:49:35;11.70;99.90
17827;DHT22;9038;48.208;16.308;2023-05-19T03:51:36;11.70;99.90
17827;DHT22;9038;48.208;16.308;2023-05-19T03:53:38;11.70;99.90
17827;DHT22;9038;48.208;16.308;2023-05-19T03:55:41;11.70;99.90
17827;DHT22;9038;48.208;16.308;2023-05-19T03:57:43;11.60;99.90
17827;DHT22;9038;48.208;16.308;2023-05-19T03:59:47;11.60;99.90
17827;DHT22;9038;48.208;16.308;2023-05-19T04:01:49;11.60;99.90
17827;DHT22;9038;48.208;16.308;2023-05-19T04:03:51;11.60;99.90
17827;DHT22;9038;48.208;16.308;2023-05-19T04:05:53;11.60;99.90
17827;DHT22;9038;48.208;16.308;2023-05-19T04:07:55;11.60;99.90
17827;DHT22;9038;48.208;16.308;2023-05-19T04:09:57;11.50;99.90
17827;DHT22;9038;48.208;16.308;2023-05-19T04:11:58;11.50;99.90
17827;DHT22;9038;48.208;16.308;2023-05-19T04:14:00;11.50;99.90
17827;DHT22;9038;48.208;16.308;2023-05-19T04:16:04;11.50;99.90
17827;DHT22;9038;48.208;16.308;2023-05-19T04:18:06;11.50;99.90
17827;DHT22;9038;48.208;16.308;2023-05-19T04:20:09;11.50;99.90
17827;DHT22;9038;48.208;16.308;2023-05-19T04:22:12;11.50;99.90
17827;DHT22;9038;48.208;16.308;2023-05-19T04:24:14;11.60;99.90
17827;DHT22;9038;48.208;16.308;2023-05-19T04:26:15;11.60;99.90
17827;DHT22;9038;48.208;16.308;2023-05-19T04:28:18;11.60;99.90
17827;DHT22;9038;48.208;16.308;2023-05-19T04:30:21;11.70;99.90
17827;DHT22;9038;48.208;16.308;2023-05-19T04:32:24;11.70;99.90
17827;DHT22;9038;48.208;16.308;2023-05-19T04:34:26;11.80;99.90
17827;DHT22;9038;48.208;16.308;2023-05-19T04:36:28;11.70;99.90
17827;DHT22;9038;48.208;16.308;2023-05-19T04:38:30;11.80;99.90
17827;DHT22;9038;48.208;16.308;2023-05-19T04:40:32;11.70;99.90
17827;DHT22;9038;48.208;16.308;2023-05-19T04:42:34;11.80;99.90
17827;DHT22;9038;48.208;16.308;2023-05-19T04:44:36;11.80;99.90
17827;DHT22;9038;48.208;16.308;2023-05-19T04:46:39;11.90;99.90
17827;DHT22;9038;48.208;16.308;2023-05-19T04:48:43;12.00;99.90
17827;DHT22;9038;48.208;16.308;2023-05-19T04:50:45;12.00;99.90
17827;DHT22;9038;48.208;16.308;2023-05-19T04:52:48;12.10;99.90
17827;DHT22;9038;48.208;16.308;2023-05-19T04:54:50;12.20;99.90
17827;DHT22;9038;48.208;16.308;2023-05-19T04:56:52;12.20;99.90
17827;DHT22;9038;48.208;16.308;2023-05-19T04:58:54;12.40;99.90
17827;DHT22;9038;48.208;16.308;2023-05-19T05:00:56;12.60;99.90
17827;DHT22;9038;48.208;16.308;2023-05-19T05:02:58;12.80;99.90
17827;DHT22;9038;48.208;16.308;2023-05-19T05:05:01;13.00;99.90
17827;DHT22;9038;48.208;16.308;2023-05-19T05:07:04;13.20;99.90
17827;DHT22;9038;48.208;16.308;2023-05-19T05:09:05;13.40;99.90
17827;DHT22;9038;48.208;16.308;2023-05-19T05:11:08;13.60;99.90
17827;DHT22;9038;48.208;16.308;2023-05-19T05:13:11;13.70;99.90
17827;DHT22;9038;48.208;16.308;2023-05-19T05:15:13;13.90;99.90
17827;DHT22;9038;48.208;16.308;2023-05-19T05:17:16;14.00;99.90
17827;DHT22;9038;48.208;16.308;2023-05-19T05:19:18;14.00;99.90
17827;DHT22;9038;48.208;16.308;2023-05-19T05:21:23;14.00;99.90
17827;DHT22;9038;48.208;16.308;2023-05-19T05:23:26;14.00;99.90
17827;DHT22;9038;48.208;16.308;2023-05-19T05:25:28;14.00;99.90
17827;DHT22;9038;48.208;16.308;2023-05-19T05:27:30;14.10;99.90
17827;DHT22;9038;48.208;16.308;2023-05-19T05:29:33;14.20;99.90
17827;DHT22;9038;48.208;16.308;2023-05-19T05:31:34;14.30;99.90
17827;DHT22;9038;48.208;16.308;2023-05-19T05:33:37;14.40;99.90
17827;DHT22;9038;48.208;16.308;2023-05-19T05:35:40;14.50;99.90
17827;DHT22;9038;48.208;16.308;2023-05-19T05:37:43;14.60;99.90
17827;DHT22;9038;48.208;16.308;2023-05-19T05:39:45;14.70;99.90
17827;DHT22;9038;48.208;16.308;2023-05-19T05:41:47;14.70;99.90
17827;DHT22;9038;48.208;16.308;2023-05-19T05:43:49;14.70;99.90
17827;DHT22;9038;48.208;16.308;2023-05-19T05:45:50;14.70;99.90
17827;DHT22;9038;48.208;16.308;2023-05-19T05:47:53;14.80;99.90
17827;DHT22;9038;48.208;16.308;2023-05-19T05:49:55;14.80;99.90
17827;DHT22;9038;48.208;16.308;2023-05-19T05:51:58;14.80;99.90
17827;DHT22;9038;48.208;16.308;2023-05-19T05:54:01;14.90;99.90
17827;DHT22;9038;48.208;16.308;2023-05-19T05:56:07;14.90;99.90
17827;DHT22;9038;48.208;16.308;2023-05-19T05:58:09;14.90;99.90
17827;DHT22;9038;48.208;16.308;2023-05-19T06:00:12;14.80;99.90
17827;DHT22;9038;48.208;16.308;2023-05-19T06:02:16;14.90;99.90
17827;DHT22;9038;48.208;16.308;2023-05-19T06:04:18;14.90;99.90
17827;DHT22;9038;48.208;16.308;2023-05-19T06:06:20;15.00;99.90
17827;DHT22;9038;48.208;16.308;2023-05-19T06:08:22;15.10;99.90
17827;DHT22;9038;48.208;16.308;2023-05-19T06:10:26;15.20;99.90
17827;DHT22;9038;48.208;16.308;2023-05-19T06:12:28;15.30;99.90
17827;DHT22;9038;48.208;16.308;2023-05-19T06:14:30;15.40;99.90
17827;DHT22;9038;48.208;16.308;2023-05-19T06:16:32;15.60;99.90
17827;DHT22;9038;48.208;16.308;2023-05-19T06:18:34;15.70;99.90
17827;DHT22;9038;48.208;16.308;2023-05-19T06:20:35;15.90;99.90
17827;DHT22;9038;48.208;16.308;2023-05-19T06:22:37;16.00;99.90
17827;DHT22;9038;48.208;16.308;2023-05-19T06:24:39;16.20;99.90
17827;DHT22;9038;48.208;16.308;2023-05-19T06:26:43;16.40;99.90
17827;DHT22;9038;48.208;16.308;2023-05-19T06:28:45;16.70;99.90
17827;DHT22;9038;48.208;16.308;2023-05-19T06:30:47;17.00;99.90
17827;DHT22;9038;48.208;16.308;2023-05-19T06:32:49;17.10;99.90
17827;DHT22;9038;48.208;16.308;2023-05-19T06:34:51;17.30;99.90
17827;DHT22;9038;48.208;16.308;2023-05-19T06:36:54;17.40;99.90
17827;DHT22;9038;48.208;16.308;2023-05-19T06:38:56;17.40;99.90
17827;DHT22;9038;48.208;16.308;2023-05-19T06:40:58;17.50;99.90
17827;DHT22;9038;48.208;16.308;2023-05-19T06:43:01;17.60;99.90
17827;DHT22;9038;48.208;16.308;2023-05-19T06:45:05;17.60;99.90
17827;DHT22;9038;48.208;16.308;2023-05-19T06:47:07;17.50;99.90
17827;DHT22;9038;48.208;16.308;2023-05-19T06:49:09;17.10;99.90
17827;DHT22;9038;48.208;16.308;2023-05-19T06:51:11;17.00;99.90
17827;DHT22;9038;48.208;16.308;2023-05-19T06:53:13;16.80;99.90
17827;DHT22;9038;48.208;16.308;2023-05-19T06:55:14;16.70;99.90
17827;DHT22;9038;48.208;16.308;2023-05-19T06:57:16;16.60;99.90
17827;DHT22;9038;48.208;16.308;2023-05-19T06:59:19;16.60;99.90
17827;DHT22;9038;48.208;16.308;2023-05-19T07:01:22;16.60;99.90
17827;DHT22;9038;48.208;16.308;2023-05-19T07:03:25;16.60;99.90
17827;DHT22;9038;48.208;16.308;2023-05-19T07:05:34;16.50;99.90
17827;DHT22;9038;48.208;16.308;2023-05-19T07:07:36;16.40;99.90
17827;DHT22;9038;48.208;16.308;2023-05-19T07:09:38;16.30;99.90
17827;DHT22;9038;48.208;16.308;2023-05-19T07:11:40;16.20;99.90
17827;DHT22;9038;48.208;16.308;2023-05-19T07:13:42;16.20;99.90
17827;DHT22;9038;48.208;16.308;2023-05-19T07:15:45;16.30;99.90
17827;DHT22;9038;48.208;16.308;2023-05-19T07:17:48;16.30;99.90
17827;DHT22;9038;48.208;16.308;2023-05-19T07:19:50;16.20;99.90
17827;DHT22;9038;48.208;16.308;2023-05-19T07:21:52;16.20;99.90
17827;DHT22;9038;48.208;16.308;2023-05-19T07:23:54;16.20;99.90
17827;DHT22;9038;48.208;16.308;2023-05-19T07:25:56;16.20;99.90
17827;DHT22;9038;48.208;16.308;2023-05-19T07:27:57;16.10;99.90
17827;DHT22;9038;48.208;16.308;2023-05-19T07:30:00;16.10;99.90
17827;DHT22;9038;48.208;16.308;2023-05-19T07:32:04;16.10;99.90
17827;DHT22;9038;48.208;16.308;2023-05-19T07:34:06;16.30;99.90
17827;DHT22;9038;48.208;16.308;2023-05-19T07:36:08;16.50;99.90
17827;DHT22;9038;48.208;16.308;2023-05-19T07:38:10;16.80;99.90
17827;DHT22;9038;48.208;16.308;2023-05-19T07:40:12;17.30;99.90
17827;DHT22;9038;48.208;16.308;2023-05-19T07:42:14;18.00;99.90
17827;DHT22;9038;48.208;16.308;2023-05-19T07:44:15;18.50;99.90
17827;DHT22;9038;48.208;16.308;2023-05-19T07:46:17;18.60;99.90
17827;DHT22;9038;48.208;16.308;2023-05-19T07:48:21;18.80;99.90
17827;DHT22;9038;48.208;16.308;2023-05-19T07:50:23;19.30;99.90
17827;DHT22;9038;48.208;16.308;2023-05-19T07:54:27;20.20;99.90
17827;DHT22;9038;48.208;16.308;2023-05-19T07:56:29;20.30;99.90
17827;DHT22;9038;48.208;16.308;2023-05-19T07:58:31;20.40;99.90
17827;DHT22;9038;48.208;16.308;2023-05-19T08:00:32;20.70;99.90
17827;DHT22;9038;48.208;16.308;2023-05-19T08:02:34;21.30;99.90
17827;DHT22;9038;48.208;16.308;2023-05-19T08:04:37;21.80;99.90
17827;DHT22;9038;48.208;16.308;2023-05-19T08:06:39;22.30;99.90
17827;DHT22;9038;48.208;16.308;2023-05-19T08:08:42;22.40;99.90
17827;DHT22;9038;48.208;16.308;2023-05-19T08:10:43;22.40;99.90
17827;DHT22;9038;48.208;16.308;2023-05-19T08:12:45;22.10;99.90
17827;DHT22;9038;48.208;16.308;2023-05-19T08:14:47;21.60;99.90
17827;DHT22;9038;48.208;16.308;2023-05-19T08:16:49;21.20;99.90
17827;DHT22;9038;48.208;16.308;2023-05-19T08:18:51;21.10;99.90
17827;DHT22;9038;48.208;16.308;2023-05-19T08:20:54;21.10;99.90
17827;DHT22;9038;48.208;16.308;2023-05-19T08:22:55;21.10;99.90
17827;DHT22;9038;48.208;16.308;2023-05-19T08:24:57;21.20;99.90
17827;DHT22;9038;48.208;16.308;2023-05-19T08:26:59;21.50;99.90
17827;DHT22;9038;48.208;16.308;2023-05-19T08:29:00;21.80;99.90
17827;DHT22;9038;48.208;16.308;2023-05-19T08:31:16;22.10;99.90
17827;DHT22;9038;48.208;16.308;2023-05-19T08:33:18;22.20;99.90
17827;DHT22;9038;48.208;16.308;2023-05-19T08:35:21;22.10;99.90
17827;DHT22;9038;48.208;16.308;2023-05-19T08:37:24;22.30;99.90
17827;DHT22;9038;48.208;16.308;2023-05-19T08:39:25;22.60;99.90
17827;DHT22;9038;48.208;16.308;2023-05-19T08:41:27;22.70;99.90
17827;DHT22;9038;48.208;16.308;2023-05-19T08:43:29;22.70;99.90
17827;DHT22;9038;48.208;16.308;2023-05-19T08:45:31;23.10;99.90
17827;DHT22;9038;48.208;16.308;2023-05-19T08:47:33;23.50;99.90
17827;DHT22;9038;48.208;16.308;2023-05-19T08:49:35;23.20;99.90
17827;DHT22;9038;48.208;16.308;2023-05-19T08:51:44;23.00;99.90
17827;DHT22;9038;48.208;16.308;2023-05-19T08:53:50;22.90;99.90
17827;DHT22;9038;48.208;16.308;2023-05-19T08:55:57;22.80;99.90
17827;DHT22;9038;48.208;16.308;2023-05-19T08:57:59;22.50;99.90
17827;DHT22;9038;48.208;16.308;2023-05-19T09:00:01;22.60;99.90
17827;DHT22;9038;48.208;16.308;2023-05-19T09:02:07;23.00;99.90
17827;DHT22;9038;48.208;16.308;2023-05-19T09:04:09;23.10;99.90
17827;DHT22;9038;48.208;16.308;2023-05-19T09:06:11;22.60;99.90
17827;DHT22;9038;48.208;16.308;2023-05-19T09:08:13;22.40;99.90
17827;DHT22;9038;48.208;16.308;2023-05-19T09:10:16;22.30;99.90
17827;DHT22;9038;48.208;16.308;2023-05-19T09:12:18;22.40;99.90
17827;DHT22;9038;48.208;16.308;2023-05-19T09:14:20;22.20;99.90
17827;DHT22;9038;48.208;16.308;2023-05-19T09:16:22;22.10;99.90
17827;DHT22;9038;48.208;16.308;2023-05-19T09:18:25;22.30;99.90
17827;DHT22;9038;48.208;16.308;2023-05-19T09:20:29;22.70;99.90
17827;DHT22;9038;48.208;16.308;2023-05-19T09:22:30;22.90;99.90
17827;DHT22;9038;48.208;16.308;2023-05-19T09:24:35;23.10;99.90
17827;DHT22;9038;48.208;16.308;2023-05-19T09:26:39;23.60;99.90
17827;DHT22;9038;48.208;16.308;2023-05-19T09:28:41;23.80;99.90
17827;DHT22;9038;48.208;16.308;2023-05-19T09:30:43;24.20;99.90
17827;DHT22;9038;48.208;16.308;2023-05-19T09:32:45;25.10;99.90
17827;DHT22;9038;48.208;16.308;2023-05-19T09:34:47;26.40;99.90
17827;DHT22;9038;48.208;16.308;2023-05-19T09:36:50;27.30;99.90
17827;DHT22;9038;48.208;16.308;2023-05-19T09:38:52;27.60;98.90
17827;DHT22;9038;48.208;16.308;2023-05-19T09:40:54;27.80;97.40
17827;DHT22;9038;48.208;16.308;2023-05-19T09:45:00;27.10;96.20
17827;DHT22;9038;48.208;16.308;2023-05-19T09:47:02;26.90;96.50
17827;DHT22;9038;48.208;16.308;2023-05-19T09:49:07;27.30;97.30
17827;DHT22;9038;48.208;16.308;2023-05-19T09:51:09;28.60;94.50
17827;DHT22;9038;48.208;16.308;2023-05-19T09:55:13;29.80;91.80
17827;DHT22;9038;48.208;16.308;2023-05-19T09:57:15;31.00;89.40
17827;DHT22;9038;48.208;16.308;2023-05-19T09:59:17;30.30;82.00
17827;DHT22;9038;48.208;16.308;2023-05-19T10:01:20;29.20;83.10
17827;DHT22;9038;48.208;16.308;2023-05-19T10:03:22;28.30;85.90
17827;DHT22;9038;48.208;16.308;2023-05-19T10:05:25;28.20;89.70
17827;DHT22;9038;48.208;16.308;2023-05-19T10:07:27;28.70;86.00
17827;DHT22;9038;48.208;16.308;2023-05-19T10:09:30;29.20;84.40
17827;DHT22;9038;48.208;16.308;2023-05-19T10:11:32;28.90;83.20
17827;DHT22;9038;48.208;16.308;2023-05-19T10:13:34;28.10;84.10
17827;DHT22;9038;48.208;16.308;2023-05-19T10:15:38;27.70;86.50
17827;DHT22;9038;48.208;16.308;2023-05-19T10:17:42;26.50;87.10
17827;DHT22;9038;48.208;16.308;2023-05-19T10:19:44;26.40;90.10
17827;DHT22;9038;48.208;16.308;2023-05-19T10:21:46;25.90;91.20
17827;DHT22;9038;48.208;16.308;2023-05-19T10:23:47;25.30;92.10
17827;DHT22;9038;48.208;16.308;2023-05-19T10:25:49;24.70;93.70
17827;DHT22;9038;48.208;16.308;2023-05-19T10:27:53;25.20;94.60
17827;DHT22;9038;48.208;16.308;2023-05-19T10:29:56;25.80;94.50
17827;DHT22;9038;48.208;16.308;2023-05-19T10:31:59;26.20;93.00
17827;DHT22;9038;48.208;16.308;2023-05-19T10:34:06;25.80;93.20
17827;DHT22;9038;48.208;16.308;2023-05-19T10:36:19;26.50;92.90
17827;DHT22;9038;48.208;16.308;2023-05-19T10:38:26;27.70;91.50
17827;DHT22;9038;48.208;16.308;2023-05-19T10:40:35;28.70;88.30
17827;DHT22;9038;48.208;16.308;2023-05-19T10:42:39;29.90;86.30
17827;DHT22;9038;48.208;16.308;2023-05-19T10:44:47;31.40;79.80
17827;DHT22;9038;48.208;16.308;2023-05-19T10:46:51;31.90;72.10
17827;DHT22;9038;48.208;16.308;2023-05-19T10:48:52;31.20;71.30
17827;DHT22;9038;48.208;16.308;2023-05-19T10:50:56;30.60;73.10
17827;DHT22;9038;48.208;16.308;2023-05-19T10:52:58;30.40;72.50
17827;DHT22;9038;48.208;16.308;2023-05-19T10:55:00;30.70;71.30
17827;DHT22;9038;48.208;16.308;2023-05-19T10:57:01;31.50;70.10
17827;DHT22;9038;48.208;16.308;2023-05-19T10:59:04;32.00;66.70
17827;DHT22;9038;48.208;16.308;2023-05-19T11:01:06;31.90;65.10
17827;DHT22;9038;48.208;16.308;2023-05-19T11:03:12;31.60;66.00
17827;DHT22;9038;48.208;16.308;2023-05-19T11:05:14;32.50;63.20
17827;DHT22;9038;48.208;16.308;2023-05-19T11:07:19;33.30;63.10
17827;DHT22;9038;48.208;16.308;2023-05-19T11:09:21;33.20;59.60
17827;DHT22;9038;48.208;16.308;2023-05-19T11:11:25;31.00;60.30
17827;DHT22;9038;48.208;16.308;2023-05-19T11:13:27;29.50;64.60
17827;DHT22;9038;48.208;16.308;2023-05-19T11:15:32;28.40;68.00
17827;DHT22;9038;48.208;16.308;2023-05-19T11:17:34;28.00;70.20
17827;DHT22;9038;48.208;16.308;2023-05-19T11:19:36;27.50;72.60
17827;DHT22;9038;48.208;16.308;2023-05-19T11:21:40;27.60;75.50
17827;DHT22;9038;48.208;16.308;2023-05-19T11:23:44;27.90;75.40
17827;DHT22;9038;48.208;16.308;2023-05-19T11:25:46;28.20;74.20
17827;DHT22;9038;48.208;16.308;2023-05-19T11:27:48;28.70;74.70
17827;DHT22;9038;48.208;16.308;2023-05-19T11:29:52;30.20;73.00
17827;DHT22;9038;48.208;16.308;2023-05-19T11:31:55;32.10;68.80
17827;DHT22;9038;48.208;16.308;2023-05-19T11:33:56;33.10;62.60
17827;DHT22;9038;48.208;16.308;2023-05-19T11:35:58;33.10;61.40
17827;DHT22;9038;48.208;16.308;2023-05-19T11:38:00;32.10;60.40
17827;DHT22;9038;48.208;16.308;2023-05-19T11:40:04;30.60;64.60
17827;DHT22;9038;48.208;16.308;2023-05-19T11:42:07;29.90;66.10
17827;DHT22;9038;48.208;16.308;2023-05-19T11:44:09;30.20;66.50
17827;DHT22;9038;48.208;16.308;2023-05-19T11:46:11;30.20;64.60
17827;DHT22;9038;48.208;16.308;2023-05-19T11:48:13;29.50;66.30
17827;DHT22;9038;48.208;16.308;2023-05-19T11:50:16;29.00;67.90
17827;DHT22;9038;48.208;16.308;2023-05-19T11:52:19;28.60;69.70
17827;DHT22;9038;48.208;16.308;2023-05-19T11:54:27;28.00;71.50
17827;DHT22;9038;48.208;16.308;2023-05-19T11:56:33;27.60;73.00
17827;DHT22;9038;48.208;16.308;2023-05-19T11:58:36;27.40;74.70
17827;DHT22;9038;48.208;16.308;2023-05-19T12:00:38;27.30;75.50
17827;DHT22;9038;48.208;16.308;2023-05-19T12:02:40;27.60;77.60
17827;DHT22;9038;48.208;16.308;2023-05-19T12:04:41;28.10;76.20
17827;DHT22;9038;48.208;16.308;2023-05-19T12:06:43;28.60;74.70
17827;DHT22;9038;48.208;16.308;2023-05-19T12:08:45;29.30;72.90
17827;DHT22;9038;48.208;16.308;2023-05-19T12:10:47;29.10;72.00
17827;DHT22;9038;48.208;16.308;2023-05-19T12:12:51;28.60;72.80
17827;DHT22;9038;48.208;16.308;2023-05-19T12:14:52;27.80;75.60
17827;DHT22;9038;48.208;16.308;2023-05-19T12:16:54;27.20;78.00
17827;DHT22;9038;48.208;16.308;2023-05-19T12:18:56;26.90;80.60
17827;DHT22;9038;48.208;16.308;2023-05-19T12:20:57;27.10;82.30
17827;DHT22;9038;48.208;16.308;2023-05-19T12:22:59;27.70;80.20
17827;DHT22;9038;48.208;16.308;2023-05-19T12:25:01;27.40;79.50
17827;DHT22;9038;48.208;16.308;2023-05-19T12:27:05;27.00;81.20
17827;DHT22;9038;48.208;16.308;2023-05-19T12:29:09;26.90;82.90
17827;DHT22;9038;48.208;16.308;2023-05-19T12:31:13;26.80;83.40
17827;DHT22;9038;48.208;16.308;2023-05-19T12:33:15;26.50;83.90
17827;DHT22;9038;48.208;16.308;2023-05-19T12:35:16;26.10;85.50
17827;DHT22;9038;48.208;16.308;2023-05-19T12:37:19;25.40;87.60
17827;DHT22;9038;48.208;16.308;2023-05-19T12:39:20;24.90;90.30
17827;DHT22;9038;48.208;16.308;2023-05-19T12:41:23;24.50;91.30
17827;DHT22;9038;48.208;16.308;2023-05-19T12:43:24;24.30;92.20
17827;DHT22;9038;48.208;16.308;2023-05-19T12:45:28;24.20;93.10
17827;DHT22;9038;48.208;16.308;2023-05-19T12:47:34;24.70;93.40
17827;DHT22;9038;48.208;16.308;2023-05-19T12:49:36;25.00;93.60
17827;DHT22;9038;48.208;16.308;2023-05-19T12:51:37;25.10;93.10
17827;DHT22;9038;48.208;16.308;2023-05-19T12:53:39;25.20;93.10
17827;DHT22;9038;48.208;16.308;2023-05-19T12:55:42;25.20;93.00
17827;DHT22;9038;48.208;16.308;2023-05-19T12:57:46;25.20;93.30
17827;DHT22;9038;48.208;16.308;2023-05-19T12:59:49;25.40;93.20
17827;DHT22;9038;48.208;16.308;2023-05-19T13:01:55;25.30;93.30
17827;DHT22;9038;48.208;16.308;2023-05-19T13:03:57;24.70;94.40